| time (UTC) | temp F | wind direction | speed MPH | gust MPH | rain 1hr in | rain 24hr in | rain mn in | humidity % | barometer mb |
| 20260507161516 | 62 | 348 | 2.0 | 8.0 | 0.00 | 0.09 | 0.09 | 62 | |
| 20260507160517 | 62 | 4 | 1.0 | 6.0 | 0.00 | 0.09 | 0.09 | 62 | |
| 20260507155518 | 62 | 6 | 1.0 | 4.0 | 0.00 | 0.09 | 0.09 | 63 | |
| 20260507154555 | 62 | 360 | 1.0 | 5.0 | 0.00 | 0.09 | 0.09 | 63 | |
| 20260507153515 | 62 | 340 | 1.0 | 7.0 | 0.00 | 0.09 | 0.09 | 64 | |
| 20260507152516 | 63 | 0 | 2.0 | 6.0 | 0.00 | 0.09 | 0.09 | 63 | |
| 20260507151516 | 63 | 334 | 0.0 | 2.0 | 0.00 | 0.09 | 0.09 | 65 | |
| 20260507150516 | 62 | 12 | 1.0 | 7.0 | 0.00 | 0.09 | 0.09 | 65 | |
| 20260507145517 | 60 | 8 | 3.0 | 10.0 | 0.00 | 0.09 | 0.09 | 69 | |
| 20260507144517 | 60 | 6 | 2.0 | 7.0 | 0.00 | 0.09 | 0.09 | 69 | |
| 20260507143535 | 60 | 11 | 2.0 | 8.0 | 0.00 | 0.09 | 0.09 | 68 | |
| 20260507142516 | 61 | 10 | 2.0 | 8.0 | 0.00 | 0.09 | 0.09 | 68 | |
| 20260507141516 | 59 | 16 | 1.0 | 9.0 | 0.00 | 0.09 | 0.09 | 72 | |
| 20260507140516 | 59 | 323 | 1.0 | 4.0 | 0.00 | 0.09 | 0.09 | 70 | |
| 20260507135517 | 60 | 3 | 1.0 | 5.0 | 0.00 | 0.09 | 0.09 | 69 | |
| 20260507134517 | 60 | 7 | 1.0 | 5.0 | 0.00 | 0.09 | 0.09 | 71 | |
| 20260507133517 | 59 | 355 | 3.0 | 9.0 | 0.00 | 0.10 | 0.09 | 69 | |
| 20260507132515 | 59 | 24 | 1.0 | 5.0 | 0.00 | 0.10 | 0.09 | 71 | |
| 20260507131515 | 58 | 353 | 0.0 | 4.0 | 0.00 | 0.10 | 0.09 | 74 | |
| 20260507130516 | 58 | 358 | 1.0 | 3.0 | 0.00 | 0.10 | 0.09 | 71 | |
| 20260507125516 | 59 | 4 | 1.0 | 5.0 | 0.00 | 0.10 | 0.09 | 70 | |
| 20260507124517 | 61 | 12 | 1.0 | 5.0 | 0.00 | 0.10 | 0.09 | 71 | |
| 20260507123517 | 61 | 39 | 2.0 | 6.0 | 0.00 | 0.10 | 0.09 | 70 | |
| 20260507122517 | 60 | 355 | 0.0 | 2.0 | 0.00 | 0.10 | 0.09 | 71 | |
| 20260507121515 | 61 | 3 | 1.0 | 4.0 | 0.00 | 0.10 | 0.09 | 71 | |
| 20260507120516 | 62 | 135 | 1.0 | 6.0 | 0.00 | 0.10 | 0.09 | 71 | |
| 20260507115516 | 60 | 146 | 0.0 | 2.0 | 0.00 | 0.10 | 0.09 | 71 | |
| 20260507114516 | 59 | 195 | 1.0 | 6.0 | 0.00 | 0.13 | 0.09 | 72 | |
| 20260507113516 | 58 | 209 | 0.0 | 2.0 | 0.00 | 0.13 | 0.09 | 76 | |
| 20260507112517 | 58 | 231 | 0.0 | 2.0 | 0.00 | 0.13 | 0.09 | 77 | |
| 20260507111517 | 58 | 211 | 1.0 | 5.0 | 0.00 | 0.13 | 0.09 | 77 | |
| 20260507110535 | 59 | 210 | 1.0 | 4.0 | 0.00 | 0.13 | 0.09 | 75 | |
| 20260507105516 | 59 | 176 | 3.0 | 7.0 | 0.00 | 0.13 | 0.09 | 76 | |
| 20260507104516 | 59 | 220 | 1.0 | 3.0 | 0.00 | 0.13 | 0.09 | 77 | |
| 20260507103516 | 58 | 230 | 0.0 | 1.0 | 0.00 | 0.13 | 0.09 | 78 | |
| 20260507102516 | 59 | 155 | 2.0 | 7.0 | 0.00 | 0.13 | 0.09 | 79 | |
| 20260507101517 | 59 | 166 | 5.0 | 9.0 | 0.00 | 0.13 | 0.09 | 80 | |
| 20260507100517 | 58 | 164 | 0.0 | 2.0 | 0.00 | 0.13 | 0.09 | 85 | |
| 20260507095515 | 56 | 216 | 0.0 | 3.0 | 0.00 | 0.13 | 0.09 | 84 | |
| 20260507094515 | 55 | 154 | 0.0 | 2.0 | 0.00 | 0.13 | 0.09 | 87 | |
| 20260507093516 | 54 | 181 | 0.0 | 1.0 | 0.01 | 0.13 | 0.09 | 88 | |
| 20260507092516 | 53 | 216 | 0.0 | 1.0 | 0.01 | 0.13 | 0.09 | 89 | |
| 20260507091537 | 52 | 13 | 0.0 | 1.0 | 0.01 | 0.13 | 0.09 | 92 | |
| 20260507090517 | 52 | 0.0 | 0.0 | 0.01 | 0.13 | 0.09 | 92 | ||
| 20260507085517 | 52 | 5 | 0.0 | 1.0 | 0.01 | 0.13 | 0.09 | 90 | |
| 20260507084515 | 52 | 90 | 0.0 | 1.0 | 0.01 | 0.13 | 0.09 | 91 | |
| 20260507083515 | 51 | 0.0 | 0.0 | 0.00 | 0.12 | 0.09 | 91 | ||
| 20260507082516 | 51 | 148 | 0.0 | 2.0 | 0.00 | 0.12 | 0.09 | 93 | |
| 20260507081516 | 50 | 219 | 0.0 | 1.0 | 0.00 | 0.12 | 0.09 | 96 | |
| 20260507080516 | 49 | 0.0 | 0.0 | 0.00 | 0.12 | 0.09 | 97 | ||
| 20260507075537 | 48 | 189 | 1.0 | 2.0 | 0.00 | 0.12 | 0.09 | 96 | |
| 20260507074517 | 48 | 180 | 1.0 | 4.0 | 0.00 | 0.12 | 0.09 | 96 | |
| 20260507073515 | 48 | 191 | 1.0 | 2.0 | 0.00 | 0.12 | 0.09 | 95 | |
| 20260507072515 | 49 | 221 | 0.0 | 2.0 | 0.00 | 0.12 | 0.09 | 96 | |
| 20260507071516 | 48 | 0.0 | 0.0 | 0.00 | 0.12 | 0.09 | 97 | ||
| 20260507070516 | 48 | 181 | 0.0 | 2.0 | 0.00 | 0.12 | 0.09 | 98 | |
| 20260507065517 | 47 | 225 | 0.0 | 1.0 | 0.01 | 0.12 | 0.09 | 98 | |
| 20260507064517 | 47 | 199 | 1.0 | 1.0 | 0.01 | 0.12 | 0.09 | 99 | |
| 20260507063517 | 47 | 0.0 | 0.0 | 0.02 | 0.12 | 0.09 | 99 | ||
| 20260507062515 | 47 | 0.0 | 0.0 | 0.02 | 0.12 | 0.09 | 99 | ||
| 20260507061515 | 46 | 178 | 1.0 | 4.0 | 0.02 | 0.12 | 0.09 | 99 | |
| 20260507060517 | 46 | 0.0 | 0.0 | 0.02 | 0.12 | 0.09 | 99 | ||
| 20260507055517 | 46 | 137 | 0.0 | 1.0 | 0.02 | 0.11 | 0.08 | 99 | |
| 20260507054516 | 46 | 0.0 | 0.0 | 0.02 | 0.11 | 0.08 | 99 | ||
| 20260507053517 | 46 | 0.0 | 0.0 | 0.01 | 0.10 | 0.07 | 99 | ||
| 20260507052537 | 46 | 0.0 | 0.0 | 0.01 | 0.10 | 0.07 | 99 | ||
| 20260507051515 | 46 | 0.0 | 0.0 | 0.01 | 0.10 | 0.07 | 99 | ||
| 20260507050515 | 46 | 0.0 | 0.0 | 0.00 | 0.09 | 0.06 | 99 | ||
| 20260507045536 | 46 | 0.0 | 0.0 | 0.00 | 0.09 | 0.06 | 99 | ||
| 20260507044516 | 46 | 0.0 | 0.0 | 0.00 | 0.09 | 0.06 | 99 | ||
| 20260507043537 | 46 | 0.0 | 0.0 | 0.00 | 0.09 | 0.06 | 99 | ||
| 20260507042537 | 46 | 0.0 | 0.0 | 0.00 | 0.09 | 0.06 | 99 | ||
| 20260507041517 | 45 | 0.0 | 0.0 | 0.00 | 0.09 | 0.06 | 99 | ||
| 20260507040516 | 45 | 22 | 0.0 | 2.0 | 0.00 | 0.09 | 0.06 | 99 | |
| 20260507035515 | 45 | 0.0 | 0.0 | 0.00 | 0.09 | 0.06 | 99 | ||
| 20260507034537 | 45 | 0.0 | 0.0 | 0.00 | 0.09 | 0.06 | 99 | ||
| 20260507033517 | 45 | 0.0 | 0.0 | 0.00 | 0.09 | 0.06 | 98 | ||
| 20260507032516 | 45 | 0.0 | 0.0 | 0.01 | 0.09 | 0.06 | 98 | ||
| 20260507031517 | 45 | 0.0 | 0.0 | 0.01 | 0.09 | 0.06 | 98 | ||
| 20260507030538 | 45 | 0.0 | 0.0 | 0.01 | 0.09 | 0.06 | 98 | ||
| 20260507025515 | 45 | 0.0 | 0.0 | 0.01 | 0.09 | 0.06 | 98 | ||
| 20260507024535 | 45 | 19 | 0.0 | 2.0 | 0.01 | 0.09 | 0.06 | 98 | |
| 20260507023516 | 45 | 0.0 | 0.0 | 0.01 | 0.09 | 0.06 | 98 | ||
| 20260507022516 | 45 | 0.0 | 0.0 | 0.00 | 0.09 | 0.06 | 98 | ||
| 20260507021516 | 45 | 0.0 | 0.0 | 0.00 | 0.09 | 0.06 | 98 | ||
| 20260507020517 | 45 | 0.0 | 0.0 | 0.01 | 0.09 | 0.06 | 98 | ||
| 20260507015518 | 45 | 0 | 0.0 | 3.0 | 0.01 | 0.09 | 0.06 | 98 | |
| 20260507014515 | 45 | 354 | 0.0 | 2.0 | 0.01 | 0.09 | 0.06 | 98 | |
| 20260507013515 | 45 | 0.0 | 0.0 | 0.02 | 0.09 | 0.06 | 98 | ||
| 20260507012536 | 45 | 0.0 | 0.0 | 0.02 | 0.09 | 0.06 | 98 | ||
| 20260507011516 | 45 | 0.0 | 0.0 | 0.02 | 0.09 | 0.06 | 98 | ||
| 20260507010516 | 45 | 0.0 | 0.0 | 0.02 | 0.08 | 0.05 | 98 | ||
| 20260507005517 | 45 | 0.0 | 0.0 | 0.02 | 0.08 | 0.05 | 98 | ||
| 20260507004517 | 45 | 0.0 | 0.0 | 0.02 | 0.08 | 0.05 | 98 | ||
| 20260507003555 | 45 | 0.0 | 0.0 | 0.02 | 0.07 | 0.04 | 98 | ||
| 20260507002515 | 45 | 0.0 | 0.0 | 0.02 | 0.07 | 0.04 | 98 | ||
| 20260507001516 | 45 | 0.0 | 0.0 | 0.02 | 0.06 | 0.03 | 97 | ||
| 20260507000517 | 45 | 0.0 | 0.0 | 0.02 | 0.06 | 0.03 | 97 | ||
| 20260506235516 | 45 | 0.0 | 0.0 | 0.03 | 0.06 | 0.03 | 97 | ||
| 20260506234517 | 46 | 0.0 | 0.0 | 0.02 | 0.06 | 0.02 | 96 | ||
| 20260506233517 | 46 | 0.0 | 0.0 | 0.02 | 0.05 | 0.02 | 96 | ||
| 20260506232535 | 46 | 0.0 | 0.0 | 0.02 | 0.05 | 0.02 | 96 | ||
| 20260506231515 | 46 | 0.0 | 0.0 | 0.02 | 0.05 | 0.02 | 95 | ||
| 20260506230515 | 46 | 0.0 | 0.0 | 0.01 | 0.04 | 0.01 | 95 | ||
| 20260506225516 | 46 | 0.0 | 0.0 | 0.00 | 0.03 | 0.00 | 93 | ||
| 20260506224516 | 46 | 344 | 0.0 | 1.0 | 0.00 | 0.03 | 0.00 | 93 | |
| 20260506223516 | 46 | 344 | 0.0 | 1.0 | 0.00 | 0.03 | 0.00 | 93 | |
| 20260506222517 | 46 | 0.0 | 0.0 | 0.00 | 0.03 | 0.00 | 94 | ||
| 20260506221515 | 45 | 0.0 | 0.0 | 0.00 | 0.03 | 0.00 | 94 | ||
| 20260506220515 | 45 | 0.0 | 0.0 | 0.00 | 0.03 | 0.00 | 94 | ||
| 20260506215515 | 45 | 343 | 0.0 | 1.0 | 0.00 | 0.03 | 0.03 | 94 | |
| 20260506214516 | 45 | 0.0 | 0.0 | 0.00 | 0.03 | 0.03 | 94 | ||
| 20260506213516 | 45 | 9 | 2.0 | 2.0 | 0.00 | 0.03 | 0.03 | 94 | |
| 20260506212517 | 45 | 6 | 1.0 | 2.0 | 0.00 | 0.03 | 0.03 | 94 | |
| 20260506211517 | 45 | 347 | 0.0 | 2.0 | 0.00 | 0.03 | 0.03 | 93 | |
| 20260506210515 | 46 | 7 | 1.0 | 2.0 | 0.00 | 0.03 | 0.03 | 92 | |
| 20260506205535 | 46 | 2 | 1.0 | 2.0 | 0.00 | 0.03 | 0.03 | 92 | |
| 20260506204515 | 46 | 357 | 1.0 | 3.0 | 0.00 | 0.03 | 0.03 | 91 | |
| 20260506203516 | 46 | 0.0 | 0.0 | 0.00 | 0.03 | 0.03 | 90 | ||
| 20260506202516 | 46 | 0.0 | 0.0 | 0.00 | 0.03 | 0.03 | 89 | ||
| 20260506201517 | 46 | 0.0 | 0.0 | 0.00 | 0.03 | 0.03 | 89 | ||
| 20260506200557 | 46 | 321 | 0.0 | 1.0 | 0.00 | 0.03 | 0.03 | 89 | |
| 20260506195536 | 47 | 0.0 | 0.0 | 0.00 | 0.03 | 0.03 | 89 | ||
| 20260506194515 | 47 | 331 | 0.0 | 1.0 | 0.00 | 0.03 | 0.03 | 89 | |
| 20260506193536 | 47 | 353 | 0.0 | 1.0 | 0.00 | 0.03 | 0.03 | 89 | |
| 20260506192516 | 48 | 333 | 0.0 | 1.0 | 0.00 | 0.03 | 0.03 | 90 | |
| 20260506191536 | 48 | 336 | 1.0 | 3.0 | 0.00 | 0.03 | 0.03 | 90 | |
| 20260506190516 | 48 | 318 | 0.0 | 1.0 | 0.00 | 0.03 | 0.03 | 90 | |
| 20260506185517 | 48 | 328 | 0.0 | 1.0 | 0.00 | 0.03 | 0.03 | 89 | |
| 20260506184558 | 48 | 328 | 0.0 | 1.0 | 0.00 | 0.03 | 0.03 | 89 | |
| 20260506183515 | 48 | 337 | 0.0 | 2.0 | 0.00 | 0.03 | 0.03 | 88 | |
| 20260506182516 | 48 | 331 | 0.0 | 2.0 | 0.00 | 0.03 | 0.03 | 88 | |
| 20260506181516 | 49 | 351 | 0.0 | 2.0 | 0.00 | 0.03 | 0.03 | 88 | |
| 20260506180516 | 48 | 323 | 0.0 | 3.0 | 0.00 | 0.03 | 0.03 | 89 | |
| 20260506175556 | 48 | 330 | 0.0 | 2.0 | 0.00 | 0.03 | 0.03 | 89 | |
| 20260506174517 | 49 | 335 | 0.0 | 3.0 | 0.00 | 0.03 | 0.03 | 89 | |
| 20260506173518 | 49 | 324 | 0.0 | 2.0 | 0.00 | 0.03 | 0.03 | 90 | |
| 20260506172535 | 49 | 9 | 0.0 | 1.0 | 0.00 | 0.03 | 0.03 | 91 | |
| 20260506171515 | 49 | 8 | 0.0 | 1.0 | 0.00 | 0.03 | 0.03 | 92 | |
| 20260506170516 | 49 | 331 | 0.0 | 1.0 | 0.00 | 0.03 | 0.03 | 92 | |
| 20260506165536 | 49 | 0.0 | 0.0 | 0.00 | 0.03 | 0.03 | 94 | ||
| 20260506164517 | 49 | 309 | 0.0 | 1.0 | 0.00 | 0.03 | 0.03 | 94 | |
| 20260506163517 | 49 | 233 | 0.0 | 1.0 | 0.00 | 0.03 | 0.03 | 94 | |
| 20260506162517 | 49 | 294 | 0.0 | 1.0 | 0.00 | 0.03 | 0.03 | 94 |